Queen Victoria — ZCEF3 — position and weather

sailwx.info

Track history (hours):
 
Tides and Currents Weather Stations Pressure Air Temp Water Temp Dewpoint Dewpoint Depression Visibility Wind Speed Wind Dir Waves Ship Positions

Queen Victoria

Last reported at 2017-Apr-23 08:30 UTC. Time now 2017-Apr-28 02:32 UTC.
Position N 32°06' W 079°40'.

Length 293 m; draft 8 m.

Type: Passenger vessel. MMSI: 310624000.

Date/timePositionNaut miles runAvg speedWind from/ knotsBaromVisibWave heightAir tempDewpointWater temp
2017-Apr-23 08:30N 32°06' W 079°40'1220.4
2017-Apr-23 07:53N 31°54' W 079°42'10928.0
2017-Apr-23 04:00N 30°06' W 080°00'178 7.4 160 / 201013.710.8 24.017.727.0
2017-Apr-22 03:54N 27°08' W 079°54'513.6
2017-Apr-22 03:30N 27°02' W 079°54'713.9
2017-Apr-22 03:00N 26°55' W 079°54'714.0
2017-Apr-22 02:29N 26°48' W 079°54'1014.0
2017-Apr-22 01:46N 26°38' W 079°55'414.0
2017-Apr-22 01:30N 26°34' W 079°55'714.0
2017-Apr-22 01:01N 26°27' W 079°56'714.3
2017-Apr-22 00:31N 26°20' W 079°57'815.8
2017-Apr-22 00:01N 26°12' W 079°57'714.1
2017-Apr-21 23:31N 26°07' W 080°02'5 9.3
2017-Apr-21 23:00N 26°06' W 080°07'0 0.5
2017-Apr-21 22:29N 26°06' W 080°07'0 0.0
2017-Apr-21 21:56N 26°06' W 080°07'0 0.0
2017-Apr-21 21:26N 26°06' W 080°07'0 0.0
2017-Apr-21 20:56N 26°06' W 080°07'0 0.0
2017-Apr-21 20:29N 26°06' W 080°07'0 0.0
2017-Apr-21 19:59N 26°06' W 080°07'0 0.0
2017-Apr-21 19:29N 26°06' W 080°07'0 0.0
2017-Apr-21 18:59N 26°06' W 080°07'0 0.0
2017-Apr-21 18:26N 26°06' W 080°07'0 0.0
2017-Apr-21 17:59N 26°06' W 080°07'0 0.0
2017-Apr-21 17:29N 26°06' W 080°07'0 0.0
2017-Apr-21 16:59N 26°06' W 080°07'0 0.0
2017-Apr-21 16:29N 26°06' W 080°07'0 0.0
2017-Apr-21 15:59N 26°06' W 080°07'0 0.0
2017-Apr-21 15:29N 26°06' W 080°07'0 0.0
2017-Apr-21 14:59N 26°06' W 080°07'0 0.0
2017-Apr-21 14:29N 26°06' W 080°07'0 0.0
2017-Apr-21 13:20N 26°06' W 080°07'0 0.0
2017-Apr-21 12:50N 26°06' W 080°07'0 0.0
2017-Apr-21 12:26N 26°06' W 080°07'0 0.0
2017-Apr-21 11:53N 26°06' W 080°07'0 0.0
2017-Apr-21 11:29N 26°06' W 080°07'0 0.0
2017-Apr-21 10:53N 26°06' W 080°07'0 0.0
2017-Apr-21 10:29N 26°06' W 080°07'0 0.0
2017-Apr-21 10:00N 26°06' W 080°07'1 2.8
2017-Apr-21 09:30N 26°06' W 080°06'3 6.5
2017-Apr-21 09:00N 26°04' W 080°03'612.4
2017-Apr-21 08:30N 25°59' W 079°59'815.8
2017-Apr-21 08:00N 25°51' W 079°57'815.7
2017-Apr-21 07:30N 25°43' W 079°58'815.4
2017-Apr-21 07:00N 25°36' W 079°59'815.9
2017-Apr-21 06:30N 25°28' W 079°58'815.8
2017-Apr-21 06:00N 25°20' W 079°59'815.2
2017-Apr-21 05:30N 25°13' W 080°02'34811.8
2017-Apr-20 00:00N 19°42' W 082°00'165 9.2 080 / 121012.9 5.4 24.421.9
2017-Apr-19 06:00N 18°18' W 079°30'6220.6 070 / 181012.1 0.3 25.523.6
2017-Apr-19 03:00N 17°54' W 078°30'7518.7 020 / 151013.010.8 26.621.1
2017-Apr-18 23:00N 17°24' W 077°18'386 7.7 050 / 321012.910.8 26.023.428.0
2017-Apr-16 21:00N 11°42' W 074°12'19616.4 060 / 301007.110.8 27.924.528.0
2017-Apr-16 09:00N 10°30' W 077°18'13919.8 050 / 281008.410.8 27.724.129.0
2017-Apr-16 02:00N 09°42' W 079°30'2510.0 020 / 301008.310.8 27.524.729.0
2017-Apr-15 23:29N 09°29' W 079°52'714.5
2017-Apr-15 23:00N 09°23' W 079°55'4 7.3
2017-Apr-15 22:30N 09°19' W 079°55'2 4.7
2017-Apr-15 22:00N 09°17' W 079°55'0 0.7
2017-Apr-15 21:30N 09°17' W 079°55'0 0.4
2017-Apr-15 21:00N 09°16' W 079°55'0 0.4
2017-Apr-15 20:30N 09°16' W 079°55'0 0.9
2017-Apr-15 19:59N 09°16' W 079°55'1 2.5
2017-Apr-15 19:30N 09°15' W 079°55'123 7.4
2017-Apr-15 03:00N 07°12' W 079°48'21814.5 360 / 371008.210.8 27.523.927.0
2017-Apr-14 12:00N 07°54' W 083°24'24617.6 1008.510.8 28.824.531.0
2017-Apr-13 22:00N 10°24' W 086°42'15615.6 040 / 351008.710.8 28.122.127.0
2017-Apr-13 12:00N 12°06' W 088°42'   060 / 291007.010.8 29.026.930.0
Track history (hours):
 
Tides and Currents Weather Stations Pressure Air Temp Water Temp Dewpoint Dewpoint Depression Visibility Wind Speed Wind Dir Waves Ship Positions

Queen Victoria

Last reported at 2017-Apr-23 08:30 UTC. Time now 2017-Apr-28 02:32 UTC.
Position N 32°06' W 079°40'.

Length 293 m; draft 8 m.

Type: Passenger vessel. MMSI: 310624000.

Date/timePositionNaut miles runAvg speedWind from/ knotsBaromVisibWave heightAir tempDewpointWater temp
2017-Apr-23 08:30N 32°06' W 079°40'1220.4
2017-Apr-23 07:53N 31°54' W 079°42'10928.0
2017-Apr-23 04:00N 30°06' W 080°00'178 7.4 160 / 201013.710.8 24.017.727.0
2017-Apr-22 03:54N 27°08' W 079°54'513.6
2017-Apr-22 03:30N 27°02' W 079°54'713.9
2017-Apr-22 03:00N 26°55' W 079°54'714.0
2017-Apr-22 02:29N 26°48' W 079°54'1014.0
2017-Apr-22 01:46N 26°38' W 079°55'414.0
2017-Apr-22 01:30N 26°34' W 079°55'714.0
2017-Apr-22 01:01N 26°27' W 079°56'714.3
2017-Apr-22 00:31N 26°20' W 079°57'815.8
2017-Apr-22 00:01N 26°12' W 079°57'714.1
2017-Apr-21 23:31N 26°07' W 080°02'5 9.3
2017-Apr-21 23:00N 26°06' W 080°07'0 0.5
2017-Apr-21 22:29N 26°06' W 080°07'0 0.0
2017-Apr-21 21:56N 26°06' W 080°07'0 0.0
2017-Apr-21 21:26N 26°06' W 080°07'0 0.0
2017-Apr-21 20:56N 26°06' W 080°07'0 0.0
2017-Apr-21 20:29N 26°06' W 080°07'0 0.0
2017-Apr-21 19:59N 26°06' W 080°07'0 0.0
2017-Apr-21 19:29N 26°06' W 080°07'0 0.0
2017-Apr-21 18:59N 26°06' W 080°07'0 0.0
2017-Apr-21 18:26N 26°06' W 080°07'0 0.0
2017-Apr-21 17:59N 26°06' W 080°07'0 0.0
2017-Apr-21 17:29N 26°06' W 080°07'0 0.0
2017-Apr-21 16:59N 26°06' W 080°07'0 0.0
2017-Apr-21 16:29N 26°06' W 080°07'0 0.0
2017-Apr-21 15:59N 26°06' W 080°07'0 0.0
2017-Apr-21 15:29N 26°06' W 080°07'0 0.0
2017-Apr-21 14:59N 26°06' W 080°07'0 0.0
2017-Apr-21 14:29N 26°06' W 080°07'0 0.0
2017-Apr-21 13:20N 26°06' W 080°07'0 0.0
2017-Apr-21 12:50N 26°06' W 080°07'0 0.0
2017-Apr-21 12:26N 26°06' W 080°07'0 0.0
2017-Apr-21 11:53N 26°06' W 080°07'0 0.0
2017-Apr-21 11:29N 26°06' W 080°07'0 0.0
2017-Apr-21 10:53N 26°06' W 080°07'0 0.0
2017-Apr-21 10:29N 26°06' W 080°07'0 0.0
2017-Apr-21 10:00N 26°06' W 080°07'1 2.8
2017-Apr-21 09:30N 26°06' W 080°06'3 6.5
2017-Apr-21 09:00N 26°04' W 080°03'612.4
2017-Apr-21 08:30N 25°59' W 079°59'815.8
2017-Apr-21 08:00N 25°51' W 079°57'815.7
2017-Apr-21 07:30N 25°43' W 079°58'815.4
2017-Apr-21 07:00N 25°36' W 079°59'815.9
2017-Apr-21 06:30N 25°28' W 079°58'815.8
2017-Apr-21 06:00N 25°20' W 079°59'815.2
2017-Apr-21 05:30N 25°13' W 080°02'34811.8
2017-Apr-20 00:00N 19°42' W 082°00'165 9.2 080 / 121012.9 5.4 24.421.9
2017-Apr-19 06:00N 18°18' W 079°30'6220.6 070 / 181012.1 0.3 25.523.6
2017-Apr-19 03:00N 17°54' W 078°30'7518.7 020 / 151013.010.8 26.621.1
2017-Apr-18 23:00N 17°24' W 077°18'386 7.7 050 / 321012.910.8 26.023.428.0
2017-Apr-16 21:00N 11°42' W 074°12'19616.4 060 / 301007.110.8 27.924.528.0
2017-Apr-16 09:00N 10°30' W 077°18'13919.8 050 / 281008.410.8 27.724.129.0
2017-Apr-16 02:00N 09°42' W 079°30'2510.0 020 / 301008.310.8 27.524.729.0
2017-Apr-15 23:29N 09°29' W 079°52'714.5
2017-Apr-15 23:00N 09°23' W 079°55'4 7.3
2017-Apr-15 22:30N 09°19' W 079°55'2 4.7
2017-Apr-15 22:00N 09°17' W 079°55'0 0.7
2017-Apr-15 21:30N 09°17' W 079°55'0 0.4
2017-Apr-15 21:00N 09°16' W 079°55'0 0.4
2017-Apr-15 20:30N 09°16' W 079°55'0 0.9
2017-Apr-15 19:59N 09°16' W 079°55'1 2.5
2017-Apr-15 19:30N 09°15' W 079°55'123 7.4
2017-Apr-15 03:00N 07°12' W 079°48'21814.5 360 / 371008.210.8 27.523.927.0
2017-Apr-14 12:00N 07°54' W 083°24'24617.6 1008.510.8 28.824.531.0
2017-Apr-13 22:00N 10°24' W 086°42'15615.6 040 / 351008.710.8 28.122.127.0
2017-Apr-13 12:00N 12°06' W 088°42'   060 / 291007.010.8 29.026.930.0

Dump ship's entire track history